Time;durP1;ratioP1;P1;durP2;ratioP2;P2;SDS_P1;SDS_P2;PMS_P1;PMS_P2;Temp;Humidity;BMP_temperature;BMP_pressure;BME280_temperature;BME280_humidity;BME280_pressure;Samples;Min_cycle;Max_cycle;Signal;HPM_P1;HPM_P2
2022/10/09 00:00:48;;;;;;;3.63;2.33;;;;;14.30;102386.00;;;;5080611;28;20221;-75
2022/10/09 00:03:17;;;;;;;2.83;1.95;;;;;14.20;102381.00;;;;5081439;28;20199;-76
2022/10/09 00:05:46;;;;;;;4.60;2.58;;;;;14.20;102378.00;;;;5080576;28;20191;-75
2022/10/09 00:08:13;;;;;;;3.88;2.00;;;;;14.20;102378.00;;;;5077236;28;20210;-76
2022/10/09 00:10:43;;;;;;;5.72;2.78;;;;;14.20;102375.00;;;;5077519;28;20570;-76
2022/10/09 00:13:11;;;;;;;4.35;2.55;;;;;14.20;102374.00;;;;5077470;28;20183;-75
2022/10/09 00:15:39;;;;;;;6.95;2.80;;;;;14.20;102378.00;;;;5085264;28;20312;-75
2022/10/09 00:18:07;;;;;;;3.80;2.72;;;;;14.20;102373.00;;;;5086667;28;20213;-75
2022/10/09 00:20:37;;;;;;;3.55;2.10;;;;;14.10;102389.00;;;;5080181;28;20987;-75
2022/10/09 00:23:06;;;;;;;5.55;2.33;;;;;14.10;102375.00;;;;5076778;28;20263;-75
2022/10/09 00:25:35;;;;;;;4.07;2.58;;;;;14.10;102374.00;;;;5089284;28;20203;-75
2022/10/09 00:28:03;;;;;;;4.93;2.25;;;;;14.10;102385.00;;;;5087548;28;20263;-75
2022/10/09 00:30:30;;;;;;;7.10;2.22;;;;;14.10;102394.00;;;;5089647;28;20234;-76
2022/10/09 00:32:57;;;;;;;3.42;2.13;;;;;14.10;102388.00;;;;5090026;28;20248;-75
2022/10/09 00:35:25;;;;;;;4.15;2.55;;;;;14.10;102377.00;;;;5087199;28;20201;-76
2022/10/09 00:37:52;;;;;;;7.53;2.45;;;;;14.10;102369.00;;;;5076143;28;20206;-76
2022/10/09 00:40:21;;;;;;;5.10;2.90;;;;;14.10;102375.00;;;;5088457;28;20225;-76
2022/10/09 00:42:55;;;;;;;3.45;2.28;;;;;14.10;102368.00;;;;5088937;28;20198;-75
2022/10/09 00:45:22;;;;;;;4.40;2.45;;;;;14.10;102371.00;;;;5087372;28;20205;-76
2022/10/09 00:47:52;;;;;;;6.50;2.60;;;;;14.10;102372.00;;;;5079411;28;20856;-75
2022/10/09 00:50:23;;;;;;;3.53;2.20;;;;;14.00;102376.00;;;;5085528;28;20198;-75
2022/10/09 00:52:54;;;;;;;5.15;2.60;;;;;14.00;102376.00;;;;5070077;28;20203;-75
2022/10/09 00:55:24;;;;;;;4.75;2.38;;;;;14.00;102371.00;;;;5069852;28;20199;-75
2022/10/09 00:57:55;;;;;;;3.53;2.30;;;;;14.00;102378.00;;;;5085758;28;20698;-75
2022/10/09 01:00:23;;;;;;;4.20;2.58;;;;;14.10;102383.00;;;;5088224;28;20203;-75
2022/10/09 01:02:52;;;;;;;3.13;2.38;;;;;14.00;102375.00;;;;5088983;28;20198;-76
2022/10/09 01:05:24;;;;;;;3.97;2.40;;;;;14.00;102382.00;;;;5087786;28;20202;-75
2022/10/09 01:07:59;;;;;;;2.85;2.05;;;;;14.00;102374.00;;;;5078573;28;20214;-76
2022/10/09 01:10:34;;;;;;;4.50;2.33;;;;;14.00;102370.00;;;;5089817;28;20582;-76
2022/10/09 01:13:10;;;;;;;3.17;2.25;;;;;13.90;102368.00;;;;5088214;28;20190;-75
2022/10/09 01:15:44;;;;;;;3.25;2.15;;;;;14.00;102373.00;;;;5088724;28;20213;-75
2022/10/09 01:18:18;;;;;;;3.58;2.30;;;;;14.00;102368.00;;;;5076305;28;20202;-75
2022/10/09 01:20:52;;;;;;;4.30;2.38;;;;;13.90;102373.00;;;;5083522;28;20233;-75
2022/10/09 01:23:52;;;;;;;4.50;2.78;;;;;13.80;102356.00;;;;5089228;28;20277;-76
2022/10/09 01:26:35;;;;;;;5.63;2.58;;;;;13.90;102362.00;;;;5088286;28;20225;-75
2022/10/09 01:29:08;;;;;;;2.92;2.25;;;;;13.90;102351.00;;;;5079652;28;20222;-75
2022/10/09 01:31:40;;;;;;;2.95;2.58;;;;;13.90;102356.00;;;;5086340;28;20210;-75
2022/10/09 01:34:08;;;;;;;5.65;2.97;;;;;13.90;102354.00;;;;5087490;28;20202;-76
2022/10/09 01:36:37;;;;;;;4.47;2.80;;;;;13.90;102347.00;;;;5086897;28;20195;-76
2022/10/09 01:39:06;;;;;;;3.92;2.22;;;;;13.90;102345.00;;;;5086942;28;20195;-76
2022/10/09 01:41:34;;;;;;;5.57;2.83;;;;;13.90;102344.00;;;;5089439;28;20221;-76
2022/10/09 01:44:03;;;;;;;7.65;2.67;;;;;13.90;102342.00;;;;5083421;28;20200;-75
2022/10/09 01:46:32;;;;;;;4.20;2.70;;;;;13.90;102341.00;;;;5082142;28;20205;-76
2022/10/09 01:49:12;;;;;;;4.85;2.55;;;;;13.80;102338.00;;;;5085601;28;20597;-75
2022/10/09 01:51:46;;;;;;;5.30;2.92;;;;;13.90;102337.00;;;;5085614;28;20204;-75
2022/10/09 01:54:14;;;;;;;3.92;2.42;;;;;13.90;102335.00;;;;5088740;28;20204;-75
2022/10/09 01:56:45;;;;;;;6.07;3.00;;;;;13.90;102333.00;;;;5087221;28;20198;-75
2022/10/09 01:59:17;;;;;;;4.57;3.10;;;;;13.80;102332.00;;;;5087589;28;20661;-76
2022/10/09 02:01:46;;;;;;;5.03;3.17;;;;;13.90;102328.00;;;;5084865;28;20215;-75
2022/10/09 02:04:16;;;;;;;4.25;3.17;;;;;13.80;102329.00;;;;5074689;28;20664;-76
2022/10/09 02:06:45;;;;;;;4.15;3.10;;;;;13.80;102322.00;;;;5083528;28;20209;-76
2022/10/09 02:09:16;;;;;;;5.40;3.03;;;;;13.80;102322.00;;;;5087202;28;20202;-76
2022/10/09 02:11:51;;;;;;;12.23;3.10;;;;;13.80;102318.00;;;;5087066;28;20199;-76
2022/10/09 02:14:19;;;;;;;3.33;2.75;;;;;13.80;102321.00;;;;5088690;28;20659;-76
2022/10/09 02:16:51;;;;;;;2.97;2.60;;;;;13.80;102319.00;;;;5088450;28;20214;-75
2022/10/09 02:19:25;;;;;;;4.85;3.13;;;;;13.80;102321.00;;;;5085361;28;20198;-75
2022/10/09 02:21:56;;;;;;;4.68;2.67;;;;;13.80;102317.00;;;;5087494;28;20213;-75
2022/10/09 02:24:24;;;;;;;4.35;2.88;;;;;13.80;102316.00;;;;5086695;28;20570;-76
2022/10/09 02:26:55;;;;;;;5.20;2.75;;;;;13.80;102310.00;;;;5088562;28;20204;-76
2022/10/09 02:29:23;;;;;;;3.97;2.67;;;;;13.80;102305.00;;;;5087162;28;20237;-76
2022/10/09 02:31:51;;;;;;;4.38;2.75;;;;;13.80;102307.00;;;;5088018;28;20195;-76
2022/10/09 02:34:19;;;;;;;4.32;2.60;;;;;13.80;102310.00;;;;5075482;28;20240;-75
2022/10/09 02:36:47;;;;;;;4.22;3.35;;;;;13.80;102309.00;;;;5087887;28;20210;-75
2022/10/09 02:39:14;;;;;;;6.80;3.10;;;;;13.80;102311.00;;;;5086835;28;20198;-76
2022/10/09 02:41:41;;;;;;;2.90;2.50;;;;;13.80;102298.00;;;;5078172;28;20233;-76
2022/10/09 02:44:09;;;;;;;3.30;2.75;;;;;13.80;102305.00;;;;5086089;28;20205;-75
2022/10/09 02:46:38;;;;;;;4.65;2.90;;;;;13.80;102304.00;;;;5088965;28;20569;-76
2022/10/09 02:49:05;;;;;;;5.32;2.85;;;;;13.80;102302.00;;;;5086676;28;20202;-76
2022/10/09 02:51:32;;;;;;;4.88;2.40;;;;;13.80;102292.00;;;;5085678;28;20202;-76
2022/10/09 02:54:00;;;;;;;4.63;3.08;;;;;13.80;102291.00;;;;5081888;28;20680;-76
2022/10/09 02:56:28;;;;;;;3.70;3.08;;;;;13.70;102298.00;;;;5077410;28;20207;-76
2022/10/09 02:58:55;;;;;;;4.07;2.42;;;;;13.70;102300.00;;;;5085717;28;20210;-76
2022/10/09 03:01:23;;;;;;;3.85;2.88;;;;;13.80;102294.00;;;;5081695;28;20226;-76
2022/10/09 03:03:51;;;;;;;5.05;2.72;;;;;13.70;102292.00;;;;5071021;28;20195;-76
2022/10/09 03:06:20;;;;;;;6.00;3.22;;;;;13.70;102297.00;;;;5086454;28;20202;-76
2022/10/09 03:08:50;;;;;;;3.85;2.90;;;;;13.70;102291.00;;;;5091890;28;20579;-76
2022/10/09 03:11:19;;;;;;;5.15;2.65;;;;;13.70;102294.00;;;;5090781;28;20670;-76
2022/10/09 03:13:46;;;;;;;3.88;3.15;;;;;13.70;102293.00;;;;5092096;28;20225;-75
2022/10/09 03:16:16;;;;;;;4.15;2.75;;;;;13.70;102290.00;;;;5091198;28;20221;-76
2022/10/09 03:18:44;;;;;;;6.47;3.67;;;;;13.70;102288.00;;;;5091905;28;20198;-76
2022/10/09 03:21:15;;;;;;;4.22;2.72;;;;;13.70;102287.00;;;;5078203;28;20229;-76
2022/10/09 03:23:42;;;;;;;4.60;2.85;;;;;13.70;102289.00;;;;5092685;28;20571;-76
2022/10/09 03:26:12;;;;;;;5.50;3.13;;;;;13.70;102298.00;;;;5091460;28;20205;-76
2022/10/09 03:28:41;;;;;;;4.03;2.75;;;;;13.70;102297.00;;;;5090219;28;20734;-76
2022/10/09 03:31:09;;;;;;;3.65;2.47;;;;;13.70;102289.00;;;;5090666;28;20201;-76
2022/10/09 03:33:37;;;;;;;5.50;3.00;;;;;13.70;102290.00;;;;5091167;28;20210;-76
2022/10/09 03:36:06;;;;;;;7.97;2.80;;;;;13.70;102288.00;;;;5091448;28;20652;-76
2022/10/09 03:38:35;;;;;;;4.88;2.92;;;;;13.70;102285.00;;;;5091599;28;20213;-76
2022/10/09 03:41:03;;;;;;;4.00;3.08;;;;;13.70;102283.00;;;;5083923;28;20206;-76
2022/10/09 03:43:30;;;;;;;4.95;3.28;;;;;13.70;102286.00;;;;5088858;28;20611;-76
2022/10/09 03:45:58;;;;;;;3.05;2.33;;;;;13.70;102282.00;;;;5091465;28;20195;-76
2022/10/09 03:48:26;;;;;;;3.03;2.70;;;;;13.70;102291.00;;;;5090349;28;20213;-76
2022/10/09 03:50:53;;;;;;;3.25;2.53;;;;;13.70;102287.00;;;;5078484;28;20198;-76
2022/10/09 03:53:20;;;;;;;2.53;2.13;;;;;13.70;102282.00;;;;5093190;28;20221;-76
2022/10/09 03:55:49;;;;;;;3.88;2.40;;;;;13.70;102289.00;;;;5082390;28;20592;-76
2022/10/09 03:58:16;;;;;;;3.58;2.80;;;;;13.70;102289.00;;;;5091038;28;20202;-76
2022/10/09 04:00:45;;;;;;;4.95;2.85;;;;;13.70;102288.00;;;;5090402;28;20662;-76
2022/10/09 04:03:12;;;;;;;5.47;2.60;;;;;13.70;102298.00;;;;5086555;28;20225;-76
2022/10/09 04:05:39;;;;;;;3.30;2.47;;;;;13.70;102296.00;;;;5084888;28;20198;-76
2022/10/09 04:08:06;;;;;;;3.67;2.70;;;;;13.70;102295.00;;;;5088773;28;20591;-76
2022/10/09 04:10:34;;;;;;;3.65;2.47;;;;;13.70;102298.00;;;;5089354;28;20210;-76
2022/10/09 04:13:03;;;;;;;3.78;2.28;;;;;13.60;102300.00;;;;5091185;28;20209;-76
2022/10/09 04:15:31;;;;;;;3.53;2.90;;;;;13.70;102306.00;;;;5086999;28;20207;-76
2022/10/09 04:17:58;;;;;;;3.38;2.90;;;;;13.70;102303.00;;;;5084320;28;20198;-76
2022/10/09 04:20:25;;;;;;;3.58;3.10;;;;;13.70;102305.00;;;;5090377;28;20206;-77
2022/10/09 04:22:52;;;;;;;3.97;2.72;;;;;13.60;102298.00;;;;5087519;28;20575;-76
2022/10/09 04:25:20;;;;;;;3.55;2.53;;;;;13.70;102296.00;;;;5089294;28;20198;-76
2022/10/09 04:27:47;;;;;;;4.63;2.97;;;;;13.60;102296.00;;;;5089686;28;20201;-76
2022/10/09 04:30:16;;;;;;;5.63;2.65;;;;;13.60;102290.00;;;;5090251;28;20228;-76
2022/10/09 04:32:43;;;;;;;4.28;2.70;;;;;13.60;102288.00;;;;5091083;28;20202;-76
2022/10/09 04:35:10;;;;;;;4.03;3.00;;;;;13.60;102285.00;;;;5086546;28;20544;-76
2022/10/09 04:37:38;;;;;;;4.20;3.30;;;;;13.60;102288.00;;;;5088933;28;20206;-76
2022/10/09 04:40:07;;;;;;;3.88;2.75;;;;;13.60;102288.00;;;;5074791;28;20280;-76
2022/10/09 04:42:34;;;;;;;4.93;2.60;;;;;13.60;102285.00;;;;5087788;28;20686;-76
2022/10/09 04:45:01;;;;;;;3.15;2.35;;;;;13.60;102281.00;;;;5086474;28;20855;-76
2022/10/09 04:47:30;;;;;;;6.70;3.17;;;;;13.60;102269.00;;;;5074234;28;20203;-76
2022/10/09 04:49:57;;;;;;;3.83;2.30;;;;;13.60;102278.00;;;;5077285;28;20191;-76
2022/10/09 04:52:26;;;;;;;3.70;3.28;;;;;13.60;102273.00;;;;5088436;28;20202;-76
2022/10/09 04:54:53;;;;;;;3.60;2.83;;;;;13.60;102271.00;;;;5087176;28;20205;-76
2022/10/09 04:57:20;;;;;;;3.45;2.67;;;;;13.60;102276.00;;;;5083372;28;20766;-76
2022/10/09 04:59:48;;;;;;;4.25;3.10;;;;;13.60;102275.00;;;;5090189;28;20579;-76
2022/10/09 05:02:15;;;;;;;3.13;2.63;;;;;13.60;102265.00;;;;5091141;28;20226;-76
2022/10/09 05:04:45;;;;;;;3.58;2.35;;;;;13.60;102270.00;;;;5089788;28;20208;-76
2022/10/09 05:07:13;;;;;;;2.90;2.20;;;;;13.60;102269.00;;;;5086541;28;20202;-76
2022/10/09 05:09:40;;;;;;;2.97;2.67;;;;;13.60;102267.00;;;;5089037;28;20202;-76
2022/10/09 05:12:07;;;;;;;4.43;3.15;;;;;13.50;102266.00;;;;5090844;28;20209;-76
2022/10/09 05:14:35;;;;;;;4.25;2.65;;;;;13.60;102271.00;;;;5088416;28;20202;-76
2022/10/09 05:17:04;;;;;;;3.30;2.60;;;;;13.50;102257.00;;;;5088501;28;20214;-76
2022/10/09 05:19:32;;;;;;;4.03;2.72;;;;;13.50;102261.00;;;;5071604;28;20221;-76
2022/10/09 05:22:00;;;;;;;7.25;3.00;;;;;13.50;102263.00;;;;5071614;28;20222;-76
2022/10/09 05:24:28;;;;;;;3.08;2.42;;;;;13.50;102263.00;;;;5089938;28;20208;-76
2022/10/09 05:26:56;;;;;;;4.78;2.88;;;;;13.50;102257.00;;;;5090321;28;20205;-76
2022/10/09 05:29:23;;;;;;;4.63;2.97;;;;;13.50;102263.00;;;;5089636;28;20708;-76
2022/10/09 05:31:50;;;;;;;3.60;2.75;;;;;13.50;102254.00;;;;5091615;28;20206;-77
2022/10/09 05:34:17;;;;;;;4.32;2.78;;;;;13.50;102256.00;;;;5087933;28;20571;-77
2022/10/09 05:36:45;;;;;;;3.58;2.65;;;;;13.50;102256.00;;;;5086794;28;20206;-76
2022/10/09 05:39:13;;;;;;;4.47;2.80;;;;;13.40;102264.00;;;;5087344;28;20578;-76
2022/10/09 05:41:41;;;;;;;5.40;2.65;;;;;13.50;102256.00;;;;5088348;28;20201;-76
2022/10/09 05:44:08;;;;;;;2.78;2.47;;;;;13.50;102252.00;;;;5087861;28;20563;-77
2022/10/09 05:46:36;;;;;;;3.35;2.42;;;;;13.40;102260.00;;;;5076282;28;20198;-77
2022/10/09 05:49:05;;;;;;;4.65;2.53;;;;;13.40;102257.00;;;;5085133;28;20574;-77
2022/10/09 05:51:36;;;;;;;4.28;2.53;;;;;13.40;102258.00;;;;5086924;28;20255;-77
2022/10/09 05:54:05;;;;;;;4.43;2.55;;;;;13.40;102266.00;;;;5082408;28;20199;-77
2022/10/09 05:56:35;;;;;;;4.65;2.45;;;;;13.40;102262.00;;;;5074066;28;20561;-77
2022/10/09 05:59:05;;;;;;;2.85;2.20;;;;;13.40;102266.00;;;;5080789;28;20199;-78
2022/10/09 06:01:34;;;;;;;6.88;2.60;;;;;13.40;102260.00;;;;5076749;28;20230;-77
2022/10/09 06:04:03;;;;;;;4.63;2.90;;;;;13.40;102263.00;;;;5080948;28;20686;-77
2022/10/09 06:06:32;;;;;;;3.08;2.28;;;;;13.40;102261.00;;;;5078331;28;20580;-77
2022/10/09 06:09:00;;;;;;;3.80;2.67;;;;;13.40;102267.00;;;;5083764;28;20203;-77
2022/10/09 06:11:30;;;;;;;4.88;2.55;;;;;13.40;102270.00;;;;5069173;28;20210;-78
2022/10/09 06:14:00;;;;;;;4.38;2.55;;;;;13.40;102268.00;;;;5085818;28;20197;-78
2022/10/09 06:16:30;;;;;;;5.30;2.65;;;;;13.40;102278.00;;;;5074014;28;20221;-78
2022/10/09 06:18:58;;;;;;;5.75;3.00;;;;;13.40;102278.00;;;;5087089;28;20651;-78
2022/10/09 06:21:25;;;;;;;6.03;2.97;;;;;13.40;102279.00;;;;5073466;28;20194;-78
2022/10/09 06:23:54;;;;;;;5.05;2.72;;;;;13.30;102281.00;;;;5078011;28;20695;-78
2022/10/09 06:26:23;;;;;;;3.35;2.83;;;;;13.40;102278.00;;;;5078550;28;20203;-78
2022/10/09 06:28:50;;;;;;;5.57;2.75;;;;;13.40;102281.00;;;;5081743;28;20249;-78
2022/10/09 06:31:20;;;;;;;4.63;2.97;;;;;13.40;102274.00;;;;5080971;28;20209;-77
2022/10/09 06:33:49;;;;;;;5.78;3.10;;;;;13.40;102279.00;;;;5087042;28;20197;-78
2022/10/09 06:36:19;;;;;;;5.38;3.15;;;;;13.40;102271.00;;;;5073253;28;20199;-77
2022/10/09 06:38:46;;;;;;;6.82;2.53;;;;;13.40;102275.00;;;;5081997;28;20186;-77
2022/10/09 06:41:16;;;;;;;3.38;2.53;;;;;13.40;102275.00;;;;5082007;28;20214;-77
2022/10/09 06:43:43;;;;;;;5.85;2.88;;;;;13.40;102275.00;;;;5075108;28;20238;-77
2022/10/09 06:46:12;;;;;;;4.07;2.83;;;;;13.50;102269.00;;;;5082965;28;20190;-77
2022/10/09 06:48:41;;;;;;;4.15;2.80;;;;;13.50;102276.00;;;;5087103;28;20197;-77
2022/10/09 06:51:11;;;;;;;4.68;3.35;;;;;13.50;102277.00;;;;5082810;28;20197;-77
2022/10/09 06:53:40;;;;;;;4.28;3.53;;;;;13.60;102280.00;;;;5087651;28;20202;-75
2022/10/09 06:56:09;;;;;;;5.50;3.17;;;;;13.60;102281.00;;;;5084083;28;22075;-76
2022/10/09 06:58:37;;;;;;;5.18;2.95;;;;;13.70;102283.00;;;;5070540;28;20267;-76
2022/10/09 07:01:06;;;;;;;3.88;2.72;;;;;13.70;102282.00;;;;5075447;28;20202;-76
2022/10/09 07:03:34;;;;;;;3.90;2.83;;;;;13.80;102284.00;;;;5084473;28;20229;-77
2022/10/09 07:06:11;;;;;;;6.90;3.58;;;;;13.80;102282.00;;;;5076284;28;20202;-77
2022/10/09 07:08:40;;;;;;;6.90;3.20;;;;;13.90;102285.00;;;;5084793;28;20201;-77
2022/10/09 07:11:15;;;;;;;5.50;3.80;;;;;13.90;102294.00;;;;5087794;28;20198;-77
2022/10/09 07:13:43;;;;;;;6.25;3.22;;;;;14.00;102288.00;;;;5079242;28;20581;-76
2022/10/09 07:16:11;;;;;;;5.43;3.72;;;;;14.10;102285.00;;;;5075775;28;20211;-77
2022/10/09 07:18:39;;;;;;;7.60;3.78;;;;;14.10;102292.00;;;;5081130;28;20668;-77
2022/10/09 07:21:09;;;;;;;5.45;3.38;;;;;14.20;102282.00;;;;5079342;28;20201;-76
2022/10/09 07:23:37;;;;;;;6.38;3.28;;;;;14.30;102289.00;;;;5083111;28;20222;-76
2022/10/09 07:26:11;;;;;;;6.78;3.80;;;;;14.30;102287.00;;;;5082004;28;20208;-75
2022/10/09 07:28:39;;;;;;;5.22;3.50;;;;;14.40;102286.00;;;;5079666;28;20225;-75
2022/10/09 07:31:06;;;;;;;4.47;3.20;;;;;14.50;102288.00;;;;5075322;28;20203;-75
2022/10/09 07:33:33;;;;;;;4.72;2.95;;;;;14.60;102282.00;;;;5078339;28;20206;-75
2022/10/09 07:36:02;;;;;;;5.45;3.25;;;;;14.60;102274.00;;;;5082796;28;20656;-76
2022/10/09 07:38:31;;;;;;;3.92;3.03;;;;;14.70;102274.00;;;;5079576;28;21069;-76
2022/10/09 07:41:01;;;;;;;5.22;3.22;;;;;14.80;102277.00;;;;5077236;28;20199;-78
2022/10/09 07:43:29;;;;;;;3.97;2.85;;;;;14.90;102280.00;;;;5080782;28;20276;-77
2022/10/09 07:45:59;;;;;;;4.68;2.97;;;;;14.90;102284.00;;;;5081795;28;20205;-77
2022/10/09 07:48:27;;;;;;;3.97;3.08;;;;;15.00;102280.00;;;;5079855;28;20725;-77
2022/10/09 07:50:54;;;;;;;3.50;2.97;;;;;15.10;102274.00;;;;5087719;28;20205;-76
2022/10/09 07:53:22;;;;;;;4.25;3.33;;;;;15.20;102284.00;;;;5090171;28;20202;-77
2022/10/09 07:55:51;;;;;;;3.40;2.78;;;;;15.30;102281.00;;;;5081391;28;20203;-77
2022/10/09 07:58:19;;;;;;;5.43;3.05;;;;;15.40;102280.00;;;;5090361;28;20576;-76
2022/10/09 08:00:47;;;;;;;5.53;3.17;;;;;15.50;102287.00;;;;5088213;28;20280;-76
2022/10/09 08:03:14;;;;;;;4.57;2.88;;;;;15.50;102283.00;;;;5070677;28;20221;-75
2022/10/09 08:05:41;;;;;;;6.20;3.05;;;;;15.60;102287.00;;;;5091299;28;20194;-76
2022/10/09 08:08:09;;;;;;;3.33;2.65;;;;;15.70;102279.00;;;;5083028;28;20191;-76
2022/10/09 08:10:36;;;;;;;6.03;2.55;;;;;15.80;102286.00;;;;5076281;28;20202;-76
2022/10/09 08:13:05;;;;;;;5.78;3.17;;;;;15.80;102279.00;;;;5085038;28;20190;-75
2022/10/09 08:15:32;;;;;;;5.40;3.50;;;;;15.90;102280.00;;;;5090616;28;20699;-75
2022/10/09 08:18:00;;;;;;;4.35;2.85;;;;;16.00;102276.00;;;;5089904;28;20285;-75
2022/10/09 08:20:27;;;;;;;5.07;3.20;;;;;16.00;102276.00;;;;5078534;28;20202;-75
2022/10/09 08:22:55;;;;;;;6.68;2.40;;;;;16.10;102279.00;;;;5084402;28;20230;-75
2022/10/09 08:25:22;;;;;;;3.35;2.47;;;;;16.20;102270.00;;;;5090513;28;20198;-75
2022/10/09 08:27:52;;;;;;;3.38;2.92;;;;;16.30;102278.00;;;;5084364;28;20198;-75
2022/10/09 08:30:21;;;;;;;12.50;2.80;;;;;16.40;102275.00;;;;5083696;28;20222;-75
2022/10/09 08:32:49;;;;;;;5.30;2.80;;;;;16.50;102273.00;;;;5085288;28;20194;-76
2022/10/09 08:35:16;;;;;;;5.53;2.92;;;;;16.60;102266.00;;;;5084201;28;20190;-77
2022/10/09 08:37:43;;;;;;;5.60;2.70;;;;;16.70;102261.00;;;;5085383;28;20211;-75
2022/10/09 08:40:16;;;;;;;6.53;2.80;;;;;16.70;102260.00;;;;5079693;28;20210;-75
2022/10/09 08:42:52;;;;;;;6.18;2.42;;;;;16.80;102267.00;;;;5077065;28;20194;-75
2022/10/09 08:45:21;;;;;;;5.78;2.85;;;;;17.00;102251.00;;;;5072473;28;20221;-75
2022/10/09 08:47:55;;;;;;;4.00;2.22;;;;;17.00;102249.00;;;;5079422;28;20191;-75
2022/10/09 08:50:25;;;;;;;4.43;2.50;;;;;17.10;102243.00;;;;5077732;28;20206;-75
2022/10/09 08:53:01;;;;;;;7.57;3.00;;;;;17.20;102240.00;;;;5083033;28;20199;-75
2022/10/09 08:55:31;;;;;;;3.67;2.28;;;;;17.30;102250.00;;;;5079676;28;20198;-75
2022/10/09 08:58:04;;;;;;;7.20;2.72;;;;;17.40;102250.00;;;;5074535;28;20202;-76
2022/10/09 09:00:37;;;;;;;5.07;2.20;;;;;17.50;102249.00;;;;5079261;28;20245;-76
2022/10/09 09:03:28;;;;;;;10.18;2.70;;;;;17.60;102241.00;;;;5079154;28;20226;-75
2022/10/09 09:06:04;;;;;;;7.40;2.42;;;;;17.70;102242.00;;;;5079404;28;20661;-76
2022/10/09 09:08:41;;;;;;;4.50;2.50;;;;;17.90;102243.00;;;;5076865;28;20186;-75
2022/10/09 09:11:18;;;;;;;3.33;2.50;;;;;18.00;102235.00;;;;5082650;28;20597;-76
2022/10/09 09:13:55;;;;;;;6.03;2.42;;;;;18.20;102237.00;;;;5089693;28;20591;-76
2022/10/09 09:16:34;;;;;;;6.68;2.40;;;;;18.30;102239.00;;;;5079102;28;20333;-76
2022/10/09 09:19:21;;;;;;;4.20;2.28;;;;;18.40;102230.00;;;;5088726;28;20214;-76
2022/10/09 09:21:51;;;;;;;5.47;2.65;;;;;18.60;102237.00;;;;5081860;28;20672;-76
2022/10/09 09:24:21;;;;;;;3.78;2.33;;;;;18.70;102236.00;;;;5088616;28;20283;-76
2022/10/09 09:26:54;;;;;;;13.30;3.80;;;;;18.90;102232.00;;;;5089312;28;20648;-76
2022/10/09 09:29:23;;;;;;;5.55;2.25;;;;;19.00;102232.00;;;;5082707;28;20225;-76
2022/10/09 09:31:58;;;;;;;5.07;2.45;;;;;19.10;102225.00;;;;5087713;28;21259;-76
2022/10/09 09:34:33;;;;;;;5.13;2.15;;;;;19.30;102224.00;;;;5081312;28;20195;-76
2022/10/09 09:37:01;;;;;;;5.82;2.72;;;;;19.40;102222.00;;;;5086088;28;20259;-75
2022/10/09 09:39:31;;;;;;;6.75;2.72;;;;;19.50;102217.00;;;;5083223;28;20206;-75
2022/10/09 09:42:02;;;;;;;3.63;1.98;;;;;19.60;102205.00;;;;5088973;28;20198;-75
2022/10/09 09:44:32;;;;;;;4.82;2.17;;;;;19.70;102216.00;;;;5072296;28;20226;-74
2022/10/09 09:47:01;;;;;;;4.45;2.38;;;;;19.80;102203.00;;;;5077897;28;20194;-75
2022/10/09 09:49:29;;;;;;;5.25;2.30;;;;;20.00;102210.00;;;;5089513;28;20209;-74
2022/10/09 09:52:00;;;;;;;5.15;2.60;;;;;20.00;102207.00;;;;5083936;28;20206;-75
2022/10/09 09:54:29;;;;;;;4.28;2.58;;;;;20.10;102198.00;;;;5083170;28;20202;-75
2022/10/09 09:56:59;;;;;;;10.85;2.53;;;;;20.20;102191.00;;;;5073247;28;20191;-75
2022/10/09 09:59:31;;;;;;;3.50;2.10;;;;;20.30;102194.00;;;;5068817;28;20202;-74
2022/10/09 10:02:11;;;;;;;3.15;1.95;;;;;20.40;102182.00;;;;5079078;28;20295;-74
2022/10/09 10:04:48;;;;;;;5.03;2.40;;;;;20.60;102181.00;;;;5085044;28;20748;-74
2022/10/09 10:07:15;;;;;;;4.53;2.15;;;;;20.70;102187.00;;;;5070267;28;20207;-74
2022/10/09 10:09:42;;;;;;;3.78;2.15;;;;;20.70;102185.00;;;;5089189;28;20202;-75
2022/10/09 10:12:18;;;;;;;2.05;1.70;;;;;20.70;102179.00;;;;5086546;28;20198;-75
2022/10/09 10:14:50;;;;;;;5.60;2.20;;;;;20.80;102183.00;;;;5069062;28;20206;-75
2022/10/09 10:17:26;;;;;;;3.20;2.20;;;;;20.90;102177.00;;;;5083667;28;20225;-75
2022/10/09 10:19:53;;;;;;;3.90;2.20;;;;;21.10;102173.00;;;;5080649;28;20570;-76
2022/10/09 10:22:26;;;;;;;3.95;2.28;;;;;21.10;102170.00;;;;5081402;28;20205;-74
2022/10/09 10:24:57;;;;;;;5.05;1.90;;;;;21.20;102181.00;;;;5076122;28;20747;-75
2022/10/09 10:27:29;;;;;;;3.78;2.53;;;;;21.30;102167.00;;;;5083388;28;20194;-75
2022/10/09 10:30:00;;;;;;;6.47;2.60;;;;;21.40;102169.00;;;;5078710;28;20232;-75
2022/10/09 10:32:33;;;;;;;4.15;2.10;;;;;21.50;102162.00;;;;5075324;28;20199;-75
2022/10/09 10:35:08;;;;;;;3.72;2.08;;;;;21.60;102157.00;;;;5078362;28;20316;-76
2022/10/09 10:37:45;;;;;;;3.47;2.22;;;;;21.70;102156.00;;;;5087116;28;20194;-77
2022/10/09 10:40:17;;;;;;;8.00;2.70;;;;;21.70;102155.00;;;;5081849;28;20197;-75
2022/10/09 10:42:54;;;;;;;4.45;2.25;;;;;21.80;102149.00;;;;5084605;28;20981;-76
2022/10/09 10:45:26;;;;;;;4.97;2.40;;;;;21.90;102145.00;;;;5077065;28;20221;-76
2022/10/09 10:47:57;;;;;;;5.82;2.17;;;;;22.00;102147.00;;;;5074653;28;20191;-76
2022/10/09 10:50:35;;;;;;;5.30;2.70;;;;;22.00;102136.00;;;;5073138;28;20191;-76
2022/10/09 10:53:09;;;;;;;6.53;2.45;;;;;22.10;102133.00;;;;5074363;28;20195;-77
2022/10/09 10:55:48;;;;;;;2.60;1.85;;;;;22.10;102139.00;;;;5073753;28;20226;-76
2022/10/09 10:58:25;;;;;;;14.95;2.47;;;;;22.20;102137.00;;;;5081661;28;21075;-76
2022/10/09 11:01:03;;;;;;;3.72;2.05;;;;;22.30;102121.00;;;;5071832;28;20194;-76
2022/10/09 11:03:43;;;;;;;6.35;2.35;;;;;22.30;102130.00;;;;5076573;28;20209;-76
2022/10/09 11:06:20;;;;;;;7.57;2.42;;;;;22.40;102118.00;;;;5083187;28;20198;-76
2022/10/09 11:09:04;;;;;;;4.50;2.20;;;;;22.40;102120.00;;;;5074423;28;20653;-75
2022/10/09 11:11:36;;;;;;;4.03;2.22;;;;;22.50;102108.00;;;;5084622;28;20190;-76
2022/10/09 11:14:15;;;;;;;4.97;2.58;;;;;22.50;102108.00;;;;5086226;28;20329;-76
2022/10/09 11:16:52;;;;;;;5.53;2.60;;;;;22.60;102100.00;;;;5086097;28;20221;-76
2022/10/09 11:19:37;;;;;;;3.75;2.33;;;;;22.60;102093.00;;;;5079342;28;20202;-75
2022/10/09 11:22:13;;;;;;;6.93;2.80;;;;;22.70;102096.00;;;;5067476;28;20214;-76
2022/10/09 11:25:02;;;;;;;3.42;2.20;;;;;22.70;102090.00;;;;5074963;28;20233;-75
2022/10/09 11:27:38;;;;;;;5.68;2.88;;;;;22.80;102090.00;;;;5079056;28;20209;-75
2022/10/09 11:30:10;;;;;;;4.90;2.30;;;;;22.80;102079.00;;;;5088152;28;20226;-75
2022/10/09 11:32:46;;;;;;;3.60;2.35;;;;;22.90;102079.00;;;;5089186;28;20201;-75
2022/10/09 11:35:19;;;;;;;5.20;2.03;;;;;22.90;102084.00;;;;5079117;28;20203;-75
2022/10/09 11:37:54;;;;;;;2.88;2.35;;;;;22.90;102075.00;;;;5071128;28;20195;-75
2022/10/09 11:40:27;;;;;;;3.42;2.35;;;;;22.90;102068.00;;;;5078537;28;20197;-75
2022/10/09 11:43:02;;;;;;;6.03;2.30;;;;;22.90;102066.00;;;;5089539;28;20195;-76
2022/10/09 11:45:36;;;;;;;3.40;2.45;;;;;23.00;102059.00;;;;5090967;28;20242;-76
2022/10/09 11:48:08;;;;;;;5.57;1.85;;;;;23.00;102053.00;;;;5088243;28;20198;-75
2022/10/09 11:50:48;;;;;;;4.00;2.03;;;;;23.00;102053.00;;;;5091826;28;20205;-75
2022/10/09 11:53:18;;;;;;;3.10;2.35;;;;;23.00;102046.00;;;;5087802;28;20222;-75
2022/10/09 11:55:47;;;;;;;3.28;1.95;;;;;23.10;102041.00;;;;5079115;28;20203;-75
2022/10/09 11:58:23;;;;;;;4.43;2.33;;;;;23.00;102035.00;;;;5071261;28;20194;-75
2022/10/09 12:00:53;;;;;;;3.50;2.20;;;;;23.10;102028.00;;;;5082517;28;20198;-76
2022/10/09 12:03:32;;;;;;;3.40;2.35;;;;;23.10;102032.00;;;;5082591;28;20283;-76
2022/10/09 12:06:10;;;;;;;2.13;1.88;;;;;23.00;102027.00;;;;5073532;28;20218;-76
2022/10/09 12:08:39;;;;;;;3.58;2.17;;;;;23.10;102017.00;;;;5075532;28;20186;-76
2022/10/09 12:11:15;;;;;;;2.85;2.17;;;;;23.10;102015.00;;;;5079515;28;20259;-75
2022/10/09 12:13:47;;;;;;;3.83;1.95;;;;;23.10;102008.00;;;;5090929;28;20201;-75
2022/10/09 12:16:36;;;;;;;3.38;2.35;;;;;23.00;102003.00;;;;5088633;28;20221;-76
2022/10/09 12:19:11;;;;;;;4.32;2.15;;;;;23.20;101990.00;;;;5088587;28;20193;-75
2022/10/09 12:21:45;;;;;;;4.78;2.17;;;;;23.20;101987.00;;;;5072231;28;20212;-75
2022/10/09 12:24:16;;;;;;;4.85;2.40;;;;;23.20;101991.00;;;;5070992;28;20225;-75